Time;durP1;ratioP1;P1;durP2;ratioP2;P2;SDS_P1;SDS_P2;PMS_P1;PMS_P2;Temp;Humidity;BMP_temperature;BMP_pressure;BME280_temperature;BME280_humidity;BME280_pressure;Samples;Min_cycle;Max_cycle;Signal;HPM_P1;HPM_P2
2021/12/31 00:02:47;;;;;;;3.43;1.47;;;;;;;14.97;67.11;98477.63;8484250;28;20422;-75
2021/12/31 00:06:52;;;;;;;4.37;1.80;;;;;;;14.90;67.68;98471.88;8484748;28;20233;-76
2021/12/31 00:10:59;;;;;;;4.03;1.63;;;;;;;15.05;66.87;98475.41;8485009;28;20229;-76
2021/12/31 00:15:02;;;;;;;2.60;1.50;;;;;;;14.99;66.72;98468.75;8484644;28;20434;-76
2021/12/31 00:19:05;;;;;;;2.70;1.60;;;;;;;14.96;67.15;98466.31;8484634;28;20430;-75
2021/12/31 00:23:12;;;;;;;2.50;1.60;;;;;;;15.01;66.82;98466.91;8484237;28;20231;-75
2021/12/31 00:27:15;;;;;;;2.10;1.27;;;;;;;14.90;67.34;98464.03;8483900;28;20238;-75
2021/12/31 00:31:18;;;;;;;2.50;1.23;;;;;;;14.93;66.96;98461.28;8483986;28;20229;-75
2021/12/31 00:35:21;;;;;;;4.10;1.20;;;;;;;15.00;66.97;98461.78;8461443;28;20285;-76
2021/12/31 00:39:25;;;;;;;3.77;1.67;;;;;;;14.88;67.47;98463.28;8450402;28;20238;-76
2021/12/31 00:43:29;;;;;;;2.17;1.33;;;;;;;14.97;67.00;98472.41;8449904;28;20233;-76
2021/12/31 00:47:32;;;;;;;2.20;1.47;;;;;;;14.96;67.01;98473.31;8449705;28;20238;-76
2021/12/31 00:51:35;;;;;;;2.80;1.23;;;;;;;15.04;66.72;98479.81;8449910;28;20230;-73
2021/12/31 00:55:39;;;;;;;3.03;1.37;;;;;;;14.89;67.13;98474.56;8449825;28;20420;-73
2021/12/31 00:59:42;;;;;;;1.80;1.23;;;;;;;14.95;66.90;98469.88;8449585;28;20427;-73
2021/12/31 01:03:45;;;;;;;3.17;1.30;;;;;;;14.95;66.72;98479.47;8449334;28;20237;-75
2021/12/31 01:07:48;;;;;;;3.87;1.27;;;;;;;14.74;67.68;98481.44;8449385;28;20233;-75
2021/12/31 01:11:53;;;;;;;2.23;1.37;;;;;;;14.99;66.75;98486.19;8449474;28;20244;-73
2021/12/31 01:15:59;;;;;;;3.70;1.40;;;;;;;14.95;66.81;98497.72;8448913;28;20234;-70
2021/12/31 01:20:02;;;;;;;3.17;1.30;;;;;;;15.05;66.36;98494.50;8449239;28;20283;-70
2021/12/31 01:24:06;;;;;;;2.33;1.20;;;;;;;14.99;66.41;98494.00;8449200;28;20420;-70
2021/12/31 01:28:10;;;;;;;2.60;1.30;;;;;;;14.97;66.13;98495.88;8448178;28;20233;-70
2021/12/31 01:32:13;;;;;;;2.97;1.60;;;;;;;14.93;66.09;98494.34;8449158;28;20257;-70
2021/12/31 01:36:16;;;;;;;6.30;1.33;;;;;;;14.81;66.37;98491.47;8448552;28;20241;-70
2021/12/31 01:40:19;;;;;;;3.37;1.37;;;;;;;14.88;66.50;98496.34;8448772;28;20571;-70
2021/12/31 01:44:26;;;;;;;3.73;1.30;;;;;;;14.89;66.38;98495.41;8449768;28;20228;-70
2021/12/31 01:48:35;;;;;;;3.07;1.07;;;;;;;14.86;66.54;98493.81;8449493;28;20269;-71
2021/12/31 01:52:40;;;;;;;2.20;1.40;;;;;;;14.88;66.61;98494.59;8449571;28;20457;-72
2021/12/31 01:56:43;;;;;;;3.47;1.33;;;;;;;15.00;65.94;98496.53;8447792;28;20237;-70
2021/12/31 02:00:48;;;;;;;2.93;1.30;;;;;;;14.99;65.79;98507.06;8447462;28;20236;-70
2021/12/31 02:04:52;;;;;;;1.63;1.10;;;;;;;14.93;66.08;98496.97;8447475;28;20296;-70
2021/12/31 02:08:55;;;;;;;3.60;1.50;;;;;;;14.94;66.52;98502.06;8447160;28;20293;-72
2021/12/31 02:12:58;;;;;;;2.77;1.23;;;;;;;14.92;66.00;98506.53;8447405;28;20234;-72
2021/12/31 02:17:07;;;;;;;2.80;1.50;;;;;;;15.01;65.65;98497.38;8447504;28;20548;-72
2021/12/31 02:21:12;;;;;;;2.27;1.30;;;;;;;14.92;65.93;98497.88;8446901;28;20230;-72
2021/12/31 02:25:15;;;;;;;2.00;1.10;;;;;;;15.02;66.02;98492.09;8447445;28;20237;-69
2021/12/31 02:29:18;;;;;;;4.57;1.40;;;;;;;14.99;65.79;98507.88;8446920;28;20273;-69
2021/12/31 02:33:21;;;;;;;2.80;1.40;;;;;;;14.99;65.85;98502.66;8447172;28;20544;-69
2021/12/31 02:37:25;;;;;;;4.00;1.50;;;;;;;15.03;65.90;98500.75;8447151;28;20234;-69
2021/12/31 02:41:28;;;;;;;2.60;1.30;;;;;;;14.95;66.16;98500.31;8447011;28;20529;-69
2021/12/31 02:45:35;;;;;;;4.57;1.40;;;;;;;14.93;65.76;98489.97;8447295;28;20230;-69
2021/12/31 02:49:41;;;;;;;2.93;1.50;;;;;;;14.93;65.75;98492.56;8447183;28;20279;-69
2021/12/31 02:53:47;;;;;;;3.43;1.60;;;;;;;14.88;65.46;98502.41;8447151;28;20439;-69
2021/12/31 02:57:50;;;;;;;3.00;1.50;;;;;;;14.93;65.70;98494.34;8446701;28;20245;-71
2021/12/31 03:01:53;;;;;;;3.13;1.50;;;;;;;14.85;65.33;98499.97;8451801;28;20230;-72
2021/12/31 03:05:56;;;;;;;4.23;1.60;;;;;;;14.85;65.41;98493.00;8454086;28;20561;-72
2021/12/31 03:10:01;;;;;;;3.53;1.70;;;;;;;14.91;65.20;98485.75;8453091;28;20238;-72
2021/12/31 03:14:05;;;;;;;3.80;1.67;;;;;;;14.78;65.83;98493.41;8453011;28;20428;-72
2021/12/31 03:18:09;;;;;;;3.43;1.50;;;;;;;14.79;65.59;98482.03;8452850;28;20225;-72
2021/12/31 03:22:12;;;;;;;3.53;1.43;;;;;;;14.98;65.30;98484.50;8452927;28;20237;-72
2021/12/31 03:26:17;;;;;;;3.73;1.60;;;;;;;14.94;64.98;98488.19;8452710;28;20241;-72
2021/12/31 03:30:20;;;;;;;4.07;1.77;;;;;;;15.00;64.82;98485.25;8451802;28;20245;-72
2021/12/31 03:34:23;;;;;;;2.37;1.43;;;;;;;15.00;65.16;98480.03;8452301;28;20548;-72
2021/12/31 03:38:27;;;;;;;3.87;1.50;;;;;;;14.99;65.36;98486.19;8452335;28;20242;-72
2021/12/31 03:42:32;;;;;;;3.77;1.60;;;;;;;14.98;65.10;98476.66;8451981;28;20226;-72
2021/12/31 03:46:34;;;;;;;2.13;1.50;;;;;;;14.98;64.68;98489.72;8451756;28;20237;-72
2021/12/31 03:50:37;;;;;;;2.70;1.60;;;;;;;14.95;64.72;98487.28;8451634;28;20234;-72
2021/12/31 03:54:41;;;;;;;2.83;1.57;;;;;;;14.84;64.81;98493.91;8451997;28;20538;-72
2021/12/31 03:58:45;;;;;;;4.23;1.77;;;;;;;14.97;64.89;98496.69;8451376;28;20230;-72
2021/12/31 04:02:48;;;;;;;4.50;1.80;;;;;;;14.92;64.25;98497.88;8451506;28;20233;-72
2021/12/31 04:06:51;;;;;;;4.90;1.83;;;;;;;14.96;64.24;98497.59;8451047;28;20440;-72
2021/12/31 04:10:54;;;;;;;3.57;1.90;;;;;;;14.92;64.31;98493.50;8450646;28;20817;-72
2021/12/31 04:14:58;;;;;;;3.10;1.90;;;;;;;14.85;64.27;98486.94;8451064;28;20244;-72
2021/12/31 04:19:01;;;;;;;3.60;1.90;;;;;;;14.83;64.33;98489.63;8450908;28;20234;-72
2021/12/31 04:23:10;;;;;;;2.47;1.50;;;;;;;14.85;64.34;98492.16;8450854;28;20426;-72
2021/12/31 04:27:13;;;;;;;3.10;1.77;;;;;;;14.86;64.49;98484.22;8450449;28;20552;-72
2021/12/31 04:31:17;;;;;;;2.67;1.60;;;;;;;14.89;64.74;98487.59;8450164;28;20234;-72
2021/12/31 04:35:20;;;;;;;3.53;1.60;;;;;;;14.88;64.61;98491.13;8450474;28;20567;-71
2021/12/31 04:39:24;;;;;;;3.50;1.70;;;;;;;14.69;64.34;98491.28;8450406;28;20234;-72
2021/12/31 04:43:26;;;;;;;2.70;1.37;;;;;;;14.88;64.62;98497.19;8450311;28;20238;-72
2021/12/31 04:47:31;;;;;;;4.67;1.70;;;;;;;14.85;64.37;98492.16;8450214;28;20226;-72
2021/12/31 04:51:34;;;;;;;3.43;1.60;;;;;;;14.86;64.58;98502.47;8449546;28;20240;-72
2021/12/31 04:55:37;;;;;;;2.97;1.60;;;;;;;14.88;64.21;98506.78;8450266;28;20242;-72
2021/12/31 04:59:40;;;;;;;3.97;1.80;;;;;;;14.83;64.26;98507.00;8450075;28;20301;-69
2021/12/31 05:03:44;;;;;;;3.37;1.63;;;;;;;14.75;64.18;98517.00;8449622;28;20335;-69
2021/12/31 05:07:47;;;;;;;4.83;1.60;;;;;;;14.76;64.95;98503.91;8449403;28;20234;-69
2021/12/31 05:11:50;;;;;;;4.70;1.63;;;;;;;14.80;64.39;98505.41;8449056;28;20237;-69
2021/12/31 05:15:57;;;;;;;3.43;1.77;;;;;;;14.85;64.11;98505.19;8448879;28;20234;-69
2021/12/31 05:20:01;;;;;;;2.53;1.60;;;;;;;14.86;64.23;98491.22;8448851;28;20427;-69
2021/12/31 05:24:05;;;;;;;5.53;1.93;;;;;;;14.77;64.76;98497.75;8447914;28;20241;-69
2021/12/31 05:28:08;;;;;;;5.00;1.40;;;;;;;14.80;64.58;98491.53;8448150;28;20238;-69
2021/12/31 05:32:11;;;;;;;4.33;1.70;;;;;;;14.78;64.49;98489.00;8448541;28;20240;-69
2021/12/31 05:36:16;;;;;;;3.57;1.70;;;;;;;14.76;64.47;98484.81;8448457;28;20244;-69
2021/12/31 05:40:19;;;;;;;4.87;1.70;;;;;;;14.76;64.36;98490.03;8448272;28;20244;-69
2021/12/31 05:44:23;;;;;;;2.73;1.60;;;;;;;14.73;64.26;98496.22;8448496;28;20226;-69
2021/12/31 05:48:26;;;;;;;3.17;1.80;;;;;;;14.71;64.63;98489.44;8448521;28;20421;-69
2021/12/31 05:52:30;;;;;;;2.60;1.83;;;;;;;14.70;64.75;98490.34;8448330;28;20230;-69
2021/12/31 05:56:33;;;;;;;3.73;2.00;;;;;;;14.66;64.60;98477.47;8448276;28;20536;-69
2021/12/31 06:00:36;;;;;;;3.70;1.90;;;;;;;14.64;64.68;98478.47;8448242;28;20248;-71
2021/12/31 06:04:39;;;;;;;3.13;1.67;;;;;;;14.57;64.39;98477.97;8448023;28;20545;-72
2021/12/31 06:08:46;;;;;;;4.57;1.80;;;;;;;14.57;64.38;98477.13;8448229;28;20568;-72
2021/12/31 06:12:49;;;;;;;3.73;2.00;;;;;;;14.54;64.30;98482.47;8448260;28;20234;-72
2021/12/31 06:16:52;;;;;;;4.77;1.83;;;;;;;14.56;63.90;98464.97;8448104;28;20533;-72
2021/12/31 06:20:56;;;;;;;3.10;2.20;;;;;;;14.50;63.19;98470.50;8447936;28;20299;-72
2021/12/31 06:25:00;;;;;;;4.70;2.07;;;;;;;14.43;63.09;98472.56;8448108;28;20230;-72
2021/12/31 06:29:04;;;;;;;4.43;2.20;;;;;;;14.42;63.26;98479.56;8447246;28;20238;-72
2021/12/31 06:33:07;;;;;;;4.80;1.90;;;;;;;14.44;62.98;98479.50;8447072;28;20230;-72
2021/12/31 06:37:10;;;;;;;3.20;1.73;;;;;;;14.52;62.89;98479.09;8458476;28;20234;-72
2021/12/31 06:41:16;;;;;;;4.80;1.83;;;;;;;14.40;62.81;98475.38;8458267;28;20238;-72
2021/12/31 06:45:19;;;;;;;3.17;1.70;;;;;;;14.36;63.48;98485.09;8458062;28;20293;-72
2021/12/31 06:49:22;;;;;;;6.50;2.10;;;;;;;14.39;63.31;98486.69;8457960;28;20233;-72
2021/12/31 06:53:25;;;;;;;4.07;2.13;;;;;;;14.36;63.26;98498.13;8469068;28;20229;-72
2021/12/31 06:57:29;;;;;;;3.33;1.73;;;;;;;14.32;63.59;98501.81;8491800;28;20229;-72
2021/12/31 07:01:32;;;;;;;4.70;1.90;;;;;;;14.24;63.20;98506.56;8491787;28;20240;-72
2021/12/31 07:05:35;;;;;;;5.40;2.00;;;;;;;14.31;63.33;98505.31;8491833;28;20260;-72
2021/12/31 07:09:38;;;;;;;2.63;1.70;;;;;;;14.30;63.57;98495.84;8491802;28;20233;-72
2021/12/31 07:13:43;;;;;;;6.53;2.30;;;;;;;14.18;63.36;98499.06;8491082;28;20235;-72
2021/12/31 07:17:46;;;;;;;6.77;2.30;;;;;;;14.26;63.67;98502.13;8491564;28;20237;-72
2021/12/31 07:21:49;;;;;;;5.47;2.90;;;;;;;14.24;64.07;98520.44;8491395;28;20233;-72
2021/12/31 07:25:52;;;;;;;3.60;2.40;;;;;;;14.28;63.89;98527.19;8491716;28;20520;-72
2021/12/31 07:29:56;;;;;;;4.10;2.60;;;;;;;14.33;63.47;98526.09;8491192;28;20311;-72
2021/12/31 07:33:59;;;;;;;5.07;2.73;;;;;;;14.38;63.73;98516.28;8491027;28;20236;-72
2021/12/31 07:38:02;;;;;;;2.43;1.77;;;;;;;14.42;63.45;98517.81;8491227;28;20552;-72
2021/12/31 07:42:05;;;;;;;5.17;2.40;;;;;;;14.45;63.08;98517.66;8481884;28;20245;-72
2021/12/31 07:46:10;;;;;;;3.30;2.20;;;;;;;14.16;63.78;98527.78;8473009;28;20217;-72
2021/12/31 07:50:13;;;;;;;5.93;2.23;;;;;;;14.39;63.15;98524.03;8456242;28;20252;-72
2021/12/31 07:54:16;;;;;;;3.67;2.23;;;;;;;14.39;63.62;98523.16;8463309;28;20226;-72
2021/12/31 07:58:19;;;;;;;3.70;2.07;;;;;;;14.35;63.34;98525.09;8482526;28;20521;-72
2021/12/31 08:02:23;;;;;;;3.37;2.00;;;;;;;14.53;62.61;98543.34;8466061;28;20229;-72
2021/12/31 08:06:27;;;;;;;4.50;1.90;;;;;;;14.41;63.46;98531.75;8484867;28;20242;-72
2021/12/31 08:10:32;;;;;;;6.50;1.70;;;;;;;14.50;62.67;98527.84;8484540;28;20239;-72
2021/12/31 08:14:55;;;;;;;4.77;1.87;;;;;;;14.50;61.88;98523.47;8461486;28;20229;-71
2021/12/31 08:18:59;;;;;;;3.53;1.73;;;;;;;14.63;61.90;98519.34;8481226;28;20232;-71
2021/12/31 08:23:07;;;;;;;3.77;1.40;;;;;;;14.62;61.50;98529.84;8484545;28;20613;-72
2021/12/31 08:27:10;;;;;;;3.33;1.60;;;;;;;14.66;61.48;98513.97;8483911;28;20512;-73
2021/12/31 08:31:13;;;;;;;2.00;1.47;;;;;;;14.72;61.25;98522.41;8484272;28;20244;-72
2021/12/31 08:35:17;;;;;;;3.80;1.60;;;;;;;14.73;60.71;98524.06;8483934;28;20236;-72
2021/12/31 08:39:20;;;;;;;2.43;1.50;;;;;;;14.70;60.87;98521.63;8484034;28;20226;-73
2021/12/31 08:43:22;;;;;;;9.57;1.80;;;;;;;14.73;61.27;98517.09;8484167;28;20225;-72
2021/12/31 08:47:26;;;;;;;4.63;1.80;;;;;;;14.64;61.50;98515.81;8483956;28;20236;-73
2021/12/31 08:51:30;;;;;;;3.07;1.67;;;;;;;14.62;61.60;98503.78;8483631;28;20229;-72
2021/12/31 08:55:33;;;;;;;4.77;2.20;;;;;;;14.69;61.87;98492.09;8483436;28;20230;-73
2021/12/31 08:59:36;;;;;;;4.50;2.27;;;;;;;14.57;62.11;98492.75;8482404;28;20237;-73
2021/12/31 09:03:39;;;;;;;5.13;2.30;;;;;;;14.78;61.86;98491.63;8483243;28;20437;-72
2021/12/31 09:07:44;;;;;;;4.50;2.00;;;;;;;14.82;62.13;98484.47;8483061;28;20233;-72
2021/12/31 09:11:47;;;;;;;3.60;2.03;;;;;;;14.84;61.82;98490.47;8482940;28;20240;-72
2021/12/31 09:15:49;;;;;;;4.50;2.00;;;;;;;14.78;61.94;98483.81;8483385;28;20233;-72
2021/12/31 09:19:53;;;;;;;5.17;2.20;;;;;;;14.79;61.65;98489.84;8482853;28;20540;-73
2021/12/31 09:23:57;;;;;;;3.83;2.00;;;;;;;14.72;61.58;98488.50;8482773;28;20256;-72
2021/12/31 09:28:00;;;;;;;4.10;2.07;;;;;;;14.84;61.26;98500.88;8482929;28;20233;-72
2021/12/31 09:32:03;;;;;;;5.60;1.70;;;;;;;14.72;60.99;98497.16;8481857;28;20296;-72
2021/12/31 09:36:06;;;;;;;2.97;1.60;;;;;;;14.67;61.65;98504.38;8482807;28;20237;-72
2021/12/31 09:40:15;;;;;;;2.77;1.80;;;;;;;14.92;60.87;98500.47;8481273;28;20258;-72
2021/12/31 09:44:20;;;;;;;3.10;1.80;;;;;;;14.87;60.87;98498.13;8481787;28;20340;-72
2021/12/31 09:48:25;;;;;;;2.30;1.50;;;;;;;14.87;60.59;98492.91;8481656;28;20287;-72
2021/12/31 09:52:29;;;;;;;3.13;1.50;;;;;;;14.91;60.42;98489.22;8481362;28;20229;-72
2021/12/31 09:56:39;;;;;;;2.27;1.57;;;;;;;14.91;59.84;98481.38;8481456;28;20229;-72
2021/12/31 10:00:45;;;;;;;3.43;1.60;;;;;;;14.96;59.97;98484.56;8481500;28;20241;-69
2021/12/31 10:04:52;;;;;;;2.50;1.47;;;;;;;15.01;60.14;98474.75;8481068;28;20233;-69
2021/12/31 10:08:57;;;;;;;5.67;1.57;;;;;;;15.00;59.97;98485.25;8480657;28;20230;-69
2021/12/31 10:13:01;;;;;;;2.90;1.47;;;;;;;15.04;60.19;98481.53;8480958;28;20237;-69
2021/12/31 10:17:06;;;;;;;2.73;1.90;;;;;;;15.41;59.48;98484.75;8481032;28;20229;-71
2021/12/31 10:21:09;;;;;;;3.17;1.40;;;;;;;15.51;59.06;98485.06;8480458;28;20233;-72
2021/12/31 10:25:18;;;;;;;3.63;1.70;;;;;;;15.78;58.27;98488.78;8480922;28;20279;-72
2021/12/31 10:29:22;;;;;;;4.07;1.63;;;;;;;15.90;57.16;98494.22;8480891;28;20396;-72
2021/12/31 10:33:40;;;;;;;2.17;1.30;;;;;;;16.18;56.65;98490.81;8480784;28;20244;-72
2021/12/31 10:37:44;;;;;;;2.40;1.50;;;;;;;16.38;56.09;98485.25;8480944;28;20233;-72
2021/12/31 10:41:51;;;;;;;4.10;1.83;;;;;;;16.55;55.31;98484.25;8481169;28;20389;-72
2021/12/31 10:45:57;;;;;;;3.13;1.80;;;;;;;16.44;55.91;98465.75;8473839;28;20229;-72
2021/12/31 10:50:10;;;;;;;3.07;1.73;;;;;;;16.39;55.43;98462.56;8437646;28;20222;-72
2021/12/31 10:54:19;;;;;;;7.93;1.97;;;;;;;16.31;56.75;98463.03;8453974;28;20230;-69
2021/12/31 10:58:24;;;;;;;2.30;1.80;;;;;;;16.78;57.85;98456.69;8474448;28;20294;-69
2021/12/31 11:02:28;;;;;;;2.80;1.33;;;;;;;15.89;56.64;98463.81;8480169;28;20233;-69
2021/12/31 11:06:31;;;;;;;2.70;1.53;;;;;;;16.32;54.92;98456.88;8450701;28;20240;-72
2021/12/31 11:10:37;;;;;;;3.07;1.77;;;;;;;16.83;54.35;98455.59;8461967;28;20230;-72
2021/12/31 11:14:40;;;;;;;4.00;1.80;;;;;;;16.58;55.17;98451.84;8461159;28;20233;-72
2021/12/31 11:18:45;;;;;;;3.97;1.57;;;;;;;16.60;54.91;98445.59;8462413;28;20229;-72
2021/12/31 11:22:48;;;;;;;2.17;1.70;;;;;;;16.75;54.39;98451.66;8466404;28;20226;-70
2021/12/31 11:27:28;;;;;;;2.37;1.63;;;;;;;16.68;53.89;98449.50;8468536;28;20229;-70
2021/12/31 11:31:33;;;;;;;2.50;1.60;;;;;;;16.54;54.70;98440.72;8471189;28;20233;-70
2021/12/31 11:35:44;;;;;;;3.03;1.53;;;;;;;16.77;54.97;98441.09;8469251;28;20261;-70
2021/12/31 11:39:48;;;;;;;3.57;2.00;;;;;;;16.80;54.76;98440.91;8468275;28;20225;-70
2021/12/31 11:44:16;;;;;;;3.67;1.70;;;;;;;16.87;53.51;98437.00;8469664;28;20229;-69
2021/12/31 11:48:55;;;;;;;5.60;1.63;;;;;;;16.75;53.92;98419.41;8456408;28;20440;-70
2021/12/31 11:53:03;;;;;;;2.37;1.50;;;;;;;16.81;54.02;98419.91;8482222;28;20228;-70
2021/12/31 11:57:08;;;;;;;3.30;1.40;;;;;;;16.65;54.18;98437.47;8470424;28;20230;-70
2021/12/31 12:01:39;;;;;;;3.83;1.40;;;;;;;16.66;53.93;98433.06;8439485;28;20289;-70
2021/12/31 12:05:43;;;;;;;4.57;1.73;;;;;;;16.66;54.44;98439.16;8449668;28;20451;-70
2021/12/31 12:10:23;;;;;;;4.23;1.60;;;;;;;16.61;54.16;98428.13;8451066;28;20429;-70
2021/12/31 12:14:31;;;;;;;3.33;1.30;;;;;;;16.93;54.04;98425.31;8445154;28;20230;-71
2021/12/31 12:18:56;;;;;;;4.73;1.57;;;;;;;16.97;54.15;98421.56;8451193;28;20234;-71
2021/12/31 12:22:59;;;;;;;2.77;1.30;;;;;;;16.94;53.78;98432.22;8450810;28;20540;-70
2021/12/31 12:27:02;;;;;;;3.50;1.20;;;;;;;16.99;53.29;98432.78;8450786;28;20234;-71
2021/12/31 12:31:16;;;;;;;4.33;1.23;;;;;;;17.12;53.33;98422.38;8450520;28;20234;-73
2021/12/31 12:35:22;;;;;;;2.50;1.20;;;;;;;17.21;53.16;98432.28;8450108;28;20493;-72
2021/12/31 12:39:25;;;;;;;2.73;1.40;;;;;;;17.30;52.75;98428.19;8450136;28;20241;-71
2021/12/31 12:43:32;;;;;;;2.93;1.17;;;;;;;17.34;52.22;98434.91;8478240;28;20557;-74
2021/12/31 12:47:36;;;;;;;2.83;1.13;;;;;;;17.22;52.32;98441.78;8483677;28;20229;-74
2021/12/31 12:51:42;;;;;;;3.40;1.17;;;;;;;17.02;52.77;98429.97;8483145;28;20234;-74
2021/12/31 12:55:45;;;;;;;5.50;1.33;;;;;;;17.01;52.90;98428.28;8483385;28;20245;-74
2021/12/31 12:59:48;;;;;;;2.37;1.03;;;;;;;17.02;53.05;98410.81;8483420;28;20237;-74
2021/12/31 13:03:53;;;;;;;1.60;1.20;;;;;;;17.16;52.70;98403.75;8482942;28;20237;-74
2021/12/31 13:07:56;;;;;;;2.30;1.30;;;;;;;17.05;52.36;98394.91;8482950;28;20229;-74
2021/12/31 13:12:02;;;;;;;2.50;1.23;;;;;;;16.86;53.44;98388.22;8482925;28;20238;-74
2021/12/31 13:16:06;;;;;;;2.03;1.27;;;;;;;16.90;53.66;98387.09;8482988;28;20225;-74
2021/12/31 13:20:13;;;;;;;2.27;1.10;;;;;;;16.79;53.43;98390.38;8482182;28;20234;-74
2021/12/31 13:24:20;;;;;;;2.13;1.27;;;;;;;16.94;53.60;98390.38;8482507;28;20551;-74
2021/12/31 13:28:27;;;;;;;1.70;1.03;;;;;;;16.60;53.58;98364.56;8482010;28;20398;-74
2021/12/31 13:32:37;;;;;;;3.27;1.20;;;;;;;16.58;53.76;98362.94;8482103;28;20240;-74
2021/12/31 13:36:50;;;;;;;4.73;1.20;;;;;;;16.63;53.71;98355.66;8482417;28;20431;-74
2021/12/31 13:41:05;;;;;;;3.83;1.47;;;;;;;16.75;53.96;98354.03;8481870;28;20242;-74
2021/12/31 13:45:18;;;;;;;3.47;1.37;;;;;;;16.59;53.86;98341.94;8447419;28;20230;-74
2021/12/31 13:49:22;;;;;;;2.53;1.20;;;;;;;16.54;54.20;98349.22;8448691;28;20253;-74
2021/12/31 13:53:27;;;;;;;2.30;1.20;;;;;;;16.41;54.62;98348.31;8448148;28;20244;-74
2021/12/31 13:57:31;;;;;;;2.13;1.07;;;;;;;16.61;54.08;98376.66;8448219;28;20226;-74
2021/12/31 14:01:34;;;;;;;2.37;1.20;;;;;;;16.74;54.49;98379.34;8448363;28;20226;-74
2021/12/31 14:05:45;;;;;;;3.27;1.50;;;;;;;16.65;54.42;98361.63;8447935;28;20238;-74
2021/12/31 14:09:50;;;;;;;3.87;1.43;;;;;;;16.58;54.70;98331.56;8448408;28;20536;-74
2021/12/31 14:13:53;;;;;;;1.60;1.10;;;;;;;16.61;54.40;98336.63;8447994;28;20455;-74
2021/12/31 14:17:57;;;;;;;2.90;1.30;;;;;;;16.42;55.63;98356.06;8447849;28;20230;-74
2021/12/31 14:22:00;;;;;;;2.33;1.20;;;;;;;16.22;56.34;98357.31;8447349;28;20226;-74
2021/12/31 14:26:05;;;;;;;3.43;1.20;;;;;;;16.50;55.27;98360.81;8447403;28;20234;-74
2021/12/31 14:30:11;;;;;;;2.40;1.23;;;;;;;16.49;55.30;98363.53;8446335;28;20233;-75
2021/12/31 14:34:15;;;;;;;4.43;1.23;;;;;;;16.33;55.28;98371.47;8446892;28;20234;-72
2021/12/31 14:38:21;;;;;;;1.23;1.00;;;;;;;16.33;55.44;98350.56;8446714;28;20234;-71
2021/12/31 14:42:27;;;;;;;2.60;1.50;;;;;;;16.28;55.73;98352.63;8446888;28;20237;-72
2021/12/31 14:46:34;;;;;;;2.63;1.30;;;;;;;16.26;55.70;98368.41;8446882;28;20229;-72
2021/12/31 14:50:38;;;;;;;3.00;1.20;;;;;;;16.16;55.70;98364.66;8446942;28;20256;-71
2021/12/31 14:54:41;;;;;;;1.90;1.17;;;;;;;16.16;55.60;98334.16;8447497;28;20233;-72
2021/12/31 14:58:46;;;;;;;4.60;1.13;;;;;;;16.22;55.84;98319.84;8453702;28;20241;-72
2021/12/31 15:02:49;;;;;;;3.30;1.50;;;;;;;16.00;56.48;98318.56;8453498;28;20240;-72
2021/12/31 15:06:52;;;;;;;1.33;0.97;;;;;;;15.95;56.51;98293.66;8453440;28;20250;-73
2021/12/31 15:10:55;;;;;;;3.93;2.10;;;;;;;15.88;56.79;98297.56;8453638;28;20234;-74
2021/12/31 15:15:00;;;;;;;3.67;1.80;;;;;;;15.76;57.35;98310.47;8453270;28;20241;-72
2021/12/31 15:19:03;;;;;;;3.10;2.10;;;;;;;15.80;57.42;98309.34;8453039;28;20413;-72
2021/12/31 15:23:06;;;;;;;3.77;1.80;;;;;;;15.59;57.70;98313.19;8452907;28;20631;-72
2021/12/31 15:27:11;;;;;;;3.80;2.90;;;;;;;15.84;57.00;98320.44;8452381;28;20410;-72
2021/12/31 15:31:19;;;;;;;6.87;4.40;;;;;;;15.83;57.42;98356.16;8452807;28;20249;-72
2021/12/31 15:35:22;;;;;;;6.97;3.73;;;;;;;15.72;57.79;98375.97;8452132;28;20241;-74
2021/12/31 15:39:25;;;;;;;6.33;3.13;;;;;;;15.74;57.54;98367.13;8452393;28;20253;-74
2021/12/31 15:43:28;;;;;;;3.67;2.80;;;;;;;15.60;58.02;98351.44;8452329;28;20289;-74
2021/12/31 15:47:33;;;;;;;5.10;2.13;;;;;;;15.72;57.89;98353.31;8452225;28;20237;-74
2021/12/31 15:51:37;;;;;;;2.33;1.57;;;;;;;15.69;57.83;98344.81;8451550;28;20230;-72
2021/12/31 15:55:40;;;;;;;3.37;1.80;;;;;;;15.48;58.70;98352.13;8451565;28;20245;-72
2021/12/31 15:59:43;;;;;;;4.97;3.10;;;;;;;15.53;58.46;98329.22;8451572;28;20397;-73
2021/12/31 16:03:47;;;;;;;3.70;3.10;;;;;;;15.39;58.64;98328.25;8451140;28;20242;-73
2021/12/31 16:07:51;;;;;;;5.67;3.43;;;;;;;15.49;58.36;98349.44;8450479;28;20234;-73
2021/12/31 16:11:53;;;;;;;4.27;3.00;;;;;;;15.34;58.79;98368.59;8451213;28;20443;-72
2021/12/31 16:15:56;;;;;;;4.70;3.47;;;;;;;15.19;59.11;98360.72;8451052;28;20246;-72
2021/12/31 16:20:01;;;;;;;6.20;5.40;;;;;;;15.17;59.28;98373.03;8451007;28;20254;-72
2021/12/31 16:24:04;;;;;;;6.30;5.00;;;;;;;15.10;59.37;98382.13;8450718;28;20409;-73
2021/12/31 16:28:08;;;;;;;6.27;5.47;;;;;;;15.09;59.26;98374.38;8483626;28;20233;-72
2021/12/31 16:32:11;;;;;;;19.63;17.20;;;;;;;14.98;59.60;98367.13;8484261;28;20230;-73
2021/12/31 16:36:15;;;;;;;12.97;11.50;;;;;;;15.08;59.51;98360.50;8483930;28;20234;-72
2021/12/31 16:40:20;;;;;;;9.30;7.53;;;;;;;15.03;59.55;98360.72;8483730;28;20423;-73
2021/12/31 16:44:23;;;;;;;10.10;8.90;;;;;;;14.87;60.07;98357.31;8483594;28;20240;-73
2021/12/31 16:48:27;;;;;;;11.33;8.80;;;;;;;14.87;60.09;98370.38;8483437;28;20233;-72
2021/12/31 16:52:31;;;;;;;11.70;8.87;;;;;;;14.83;60.16;98371.44;8483427;28;20226;-72
2021/12/31 16:56:34;;;;;;;12.17;8.53;;;;;;;14.76;60.12;98376.16;8483092;28;20237;-72
2021/12/31 17:00:37;;;;;;;8.17;6.47;;;;;;;14.76;60.04;98399.63;8483334;28;20241;-72
2021/12/31 17:04:41;;;;;;;9.73;5.97;;;;;;;14.78;59.79;98394.31;8483383;28;20279;-72
2021/12/31 17:08:46;;;;;;;10.60;7.73;;;;;;;14.74;60.27;98387.59;8482845;28;20544;-73
2021/12/31 17:12:49;;;;;;;11.33;9.23;;;;;;;14.73;60.06;98396.34;8483121;28;20229;-72
2021/12/31 17:16:52;;;;;;;15.40;11.30;;;;;;;14.64;59.80;98402.88;8483003;28;20233;-73
2021/12/31 17:20:55;;;;;;;23.03;18.00;;;;;;;14.68;59.58;98411.38;8482201;28;20552;-73
2021/12/31 17:24:59;;;;;;;26.77;20.27;;;;;;;14.61;59.36;98426.53;8482952;28;20236;-72
2021/12/31 17:29:02;;;;;;;48.70;39.67;;;;;;;14.28;59.88;98412.56;8482267;28;20240;-72
2021/12/31 17:33:05;;;;;;;9.50;6.57;;;;;;;14.41;60.73;98410.16;8482236;28;20229;-72
2021/12/31 17:37:08;;;;;;;4.63;3.40;;;;;;;14.52;60.69;98417.38;8448134;28;20434;-73
2021/12/31 17:41:14;;;;;;;4.10;2.93;;;;;;;14.45;60.77;98403.03;8448066;28;20318;-73
2021/12/31 17:45:17;;;;;;;5.17;3.00;;;;;;;14.51;60.71;98394.88;8448130;28;20319;-72
2021/12/31 17:49:20;;;;;;;3.33;2.23;;;;;;;14.48;60.63;98395.00;8447844;28;20230;-72
2021/12/31 17:53:23;;;;;;;3.63;2.20;;;;;;;14.34;60.89;98400.97;8448079;28;20233;-72
2021/12/31 17:57:28;;;;;;;2.27;1.60;;;;;;;14.49;60.62;98404.53;8447765;28;20229;-73
2021/12/31 18:01:31;;;;;;;2.90;2.03;;;;;;;14.32;61.00;98402.81;8447507;28;20229;-73
2021/12/31 18:05:33;;;;;;;3.67;2.20;;;;;;;14.33;60.92;98401.88;8447729;28;20565;-72
2021/12/31 18:09:39;;;;;;;3.90;2.00;;;;;;;14.48;60.40;98381.97;8447641;28;20234;-72
2021/12/31 18:13:45;;;;;;;4.07;3.20;;;;;;;14.38;60.75;98381.66;8447546;28;20237;-72
2021/12/31 18:17:48;;;;;;;4.50;2.90;;;;;;;14.18;61.26;98389.66;8447096;28;20230;-72
2021/12/31 18:21:51;;;;;;;2.40;2.20;;;;;;;14.31;60.79;98395.91;8447602;28;20236;-72
2021/12/31 18:25:54;;;;;;;3.20;2.10;;;;;;;14.41;60.65;98393.66;8447310;28;20241;-72
2021/12/31 18:29:58;;;;;;;2.90;2.03;;;;;;;14.32;60.70;98392.41;8447013;28;20587;-72
2021/12/31 18:34:01;;;;;;;2.97;2.10;;;;;;;14.29;60.84;98392.53;8447054;28;20297;-72
2021/12/31 18:38:04;;;;;;;2.53;2.10;;;;;;;14.45;60.61;98400.41;8447322;28;20411;-72
2021/12/31 18:42:08;;;;;;;2.50;2.00;;;;;;;14.40;60.36;98407.63;8446710;28;20226;-73
2021/12/31 18:46:21;;;;;;;2.77;1.90;;;;;;;14.35;60.58;98420.88;8447068;28;20229;-72
2021/12/31 18:50:24;;;;;;;2.50;1.90;;;;;;;14.37;60.12;98439.03;8446615;28;20449;-72
2021/12/31 18:54:27;;;;;;;2.50;2.30;;;;;;;14.26;60.33;98452.63;8446896;28;20327;-72
2021/12/31 18:58:31;;;;;;;3.90;2.47;;;;;;;14.23;60.82;98461.44;8446941;28;20342;-72
2021/12/31 19:02:35;;;;;;;2.97;2.43;;;;;;;14.27;60.94;98464.72;8446886;28;20229;-72
2021/12/31 19:06:38;;;;;;;3.30;2.50;;;;;;;14.37;60.47;98475.50;8446180;28;20424;-72
2021/12/31 19:10:41;;;;;;;3.67;2.57;;;;;;;14.29;60.56;98491.53;8446145;28;20430;-72
2021/12/31 19:14:44;;;;;;;4.13;3.00;;;;;;;14.20;60.72;98498.06;8446260;28;20234;-72